sensor_id;sensor_type;location;lat;lon;timestamp;P1;durP1;ratioP1;P2;durP2;ratioP2
16416;SDS011;8317;52.186;5.688;2023-10-13T00:01:08;16.00;;;7.18;;
16416;SDS011;8317;52.186;5.688;2023-10-13T00:03:37;17.67;;;7.82;;
16416;SDS011;8317;52.186;5.688;2023-10-13T00:06:05;19.80;;;9.18;;
16416;SDS011;8317;52.186;5.688;2023-10-13T00:08:33;16.42;;;8.52;;
16416;SDS011;8317;52.186;5.688;2023-10-13T00:11:01;14.52;;;8.55;;
16416;SDS011;8317;52.186;5.688;2023-10-13T00:13:31;18.48;;;8.88;;
16416;SDS011;8317;52.186;5.688;2023-10-13T00:16:07;23.90;;;9.85;;
16416;SDS011;8317;52.186;5.688;2023-10-13T00:18:41;23.55;;;9.02;;
16416;SDS011;8317;52.186;5.688;2023-10-13T00:21:09;17.77;;;9.48;;
16416;SDS011;8317;52.186;5.688;2023-10-13T00:23:38;18.73;;;9.00;;
16416;SDS011;8317;52.186;5.688;2023-10-13T00:26:08;19.23;;;8.70;;
16416;SDS011;8317;52.186;5.688;2023-10-13T00:28:39;22.02;;;9.70;;
16416;SDS011;8317;52.186;5.688;2023-10-13T00:31:12;15.95;;;8.85;;
16416;SDS011;8317;52.186;5.688;2023-10-13T00:33:40;18.77;;;8.60;;
16416;SDS011;8317;52.186;5.688;2023-10-13T00:36:08;18.35;;;8.73;;
16416;SDS011;8317;52.186;5.688;2023-10-13T00:38:42;18.88;;;8.05;;
16416;SDS011;8317;52.186;5.688;2023-10-13T00:41:13;13.30;;;7.93;;
16416;SDS011;8317;52.186;5.688;2023-10-13T00:43:46;15.95;;;8.65;;
16416;SDS011;8317;52.186;5.688;2023-10-13T00:46:30;17.85;;;9.48;;
16416;SDS011;8317;52.186;5.688;2023-10-13T00:48:59;18.90;;;8.48;;
16416;SDS011;8317;52.186;5.688;2023-10-13T00:51:26;27.45;;;9.70;;
16416;SDS011;8317;52.186;5.688;2023-10-13T00:54:01;16.60;;;8.68;;
16416;SDS011;8317;52.186;5.688;2023-10-13T00:56:32;18.80;;;9.77;;
16416;SDS011;8317;52.186;5.688;2023-10-13T00:59:07;18.05;;;9.20;;
16416;SDS011;8317;52.186;5.688;2023-10-13T01:01:35;20.45;;;9.23;;
16416;SDS011;8317;52.186;5.688;2023-10-13T01:04:02;18.85;;;10.07;;
16416;SDS011;8317;52.186;5.688;2023-10-13T01:06:30;20.40;;;9.57;;
16416;SDS011;8317;52.186;5.688;2023-10-13T01:08:57;19.63;;;9.25;;
16416;SDS011;8317;52.186;5.688;2023-10-13T01:11:35;19.98;;;10.02;;
16416;SDS011;8317;52.186;5.688;2023-10-13T01:14:03;18.50;;;9.15;;
16416;SDS011;8317;52.186;5.688;2023-10-13T01:16:30;19.17;;;10.25;;
16416;SDS011;8317;52.186;5.688;2023-10-13T01:18:58;19.88;;;9.18;;
16416;SDS011;8317;52.186;5.688;2023-10-13T01:21:25;21.02;;;10.40;;
16416;SDS011;8317;52.186;5.688;2023-10-13T01:23:54;19.50;;;9.80;;
16416;SDS011;8317;52.186;5.688;2023-10-13T01:26:21;24.25;;;10.77;;
16416;SDS011;8317;52.186;5.688;2023-10-13T01:28:49;18.85;;;10.05;;
16416;SDS011;8317;52.186;5.688;2023-10-13T01:31:16;24.50;;;10.70;;
16416;SDS011;8317;52.186;5.688;2023-10-13T01:33:54;19.75;;;11.05;;
16416;SDS011;8317;52.186;5.688;2023-10-13T01:36:23;21.45;;;10.93;;
16416;SDS011;8317;52.186;5.688;2023-10-13T01:38:51;19.98;;;11.27;;
16416;SDS011;8317;52.186;5.688;2023-10-13T01:41:19;21.10;;;10.02;;
16416;SDS011;8317;52.186;5.688;2023-10-13T01:43:47;27.52;;;10.60;;
16416;SDS011;8317;52.186;5.688;2023-10-13T01:46:15;23.48;;;10.07;;
16416;SDS011;8317;52.186;5.688;2023-10-13T01:48:44;16.85;;;10.15;;
16416;SDS011;8317;52.186;5.688;2023-10-13T01:51:11;19.63;;;10.35;;
16416;SDS011;8317;52.186;5.688;2023-10-13T01:53:37;16.10;;;9.10;;
16416;SDS011;8317;52.186;5.688;2023-10-13T01:56:05;22.27;;;10.68;;
16416;SDS011;8317;52.186;5.688;2023-10-13T01:58:36;21.27;;;10.77;;
16416;SDS011;8317;52.186;5.688;2023-10-13T02:01:06;19.25;;;10.68;;
16416;SDS011;8317;52.186;5.688;2023-10-13T02:03:32;18.30;;;9.18;;
16416;SDS011;8317;52.186;5.688;2023-10-13T02:06:05;18.88;;;10.02;;
16416;SDS011;8317;52.186;5.688;2023-10-13T02:08:35;21.08;;;10.38;;
16416;SDS011;8317;52.186;5.688;2023-10-13T02:11:05;16.23;;;9.23;;
16416;SDS011;8317;52.186;5.688;2023-10-13T02:13:32;19.52;;;10.02;;
16416;SDS011;8317;52.186;5.688;2023-10-13T02:16:07;20.70;;;11.38;;
16416;SDS011;8317;52.186;5.688;2023-10-13T02:18:34;16.83;;;9.00;;
16416;SDS011;8317;52.186;5.688;2023-10-13T02:21:08;15.15;;;9.10;;
16416;SDS011;8317;52.186;5.688;2023-10-13T02:23:38;21.02;;;9.95;;
16416;SDS011;8317;52.186;5.688;2023-10-13T02:26:09;13.15;;;7.63;;
16416;SDS011;8317;52.186;5.688;2023-10-13T02:28:37;18.17;;;9.43;;
16416;SDS011;8317;52.186;5.688;2023-10-13T02:31:05;24.10;;;8.75;;
16416;SDS011;8317;52.186;5.688;2023-10-13T02:33:33;16.77;;;7.63;;
16416;SDS011;8317;52.186;5.688;2023-10-13T02:36:02;12.02;;;7.40;;
16416;SDS011;8317;52.186;5.688;2023-10-13T02:38:30;15.27;;;8.13;;
16416;SDS011;8317;52.186;5.688;2023-10-13T02:41:09;16.58;;;7.90;;
16416;SDS011;8317;52.186;5.688;2023-10-13T02:43:36;13.00;;;7.60;;
16416;SDS011;8317;52.186;5.688;2023-10-13T02:46:04;16.55;;;7.93;;
16416;SDS011;8317;52.186;5.688;2023-10-13T02:48:30;12.95;;;7.95;;
16416;SDS011;8317;52.186;5.688;2023-10-13T02:51:06;13.68;;;6.90;;
16416;SDS011;8317;52.186;5.688;2023-10-13T02:53:40;13.07;;;7.32;;
16416;SDS011;8317;52.186;5.688;2023-10-13T02:56:11;12.48;;;6.75;;
16416;SDS011;8317;52.186;5.688;2023-10-13T02:58:38;16.40;;;8.07;;
16416;SDS011;8317;52.186;5.688;2023-10-13T03:01:09;9.05;;;6.55;;
16416;SDS011;8317;52.186;5.688;2023-10-13T03:03:42;13.02;;;6.68;;
16416;SDS011;8317;52.186;5.688;2023-10-13T03:06:14;13.00;;;7.85;;
16416;SDS011;8317;52.186;5.688;2023-10-13T03:08:41;16.20;;;7.55;;
16416;SDS011;8317;52.186;5.688;2023-10-13T03:11:08;14.10;;;7.80;;
16416;SDS011;8317;52.186;5.688;2023-10-13T03:13:36;19.98;;;7.70;;
16416;SDS011;8317;52.186;5.688;2023-10-13T03:16:10;13.18;;;7.80;;
16416;SDS011;8317;52.186;5.688;2023-10-13T03:18:40;16.23;;;7.78;;
16416;SDS011;8317;52.186;5.688;2023-10-13T03:21:17;10.80;;;6.43;;
16416;SDS011;8317;52.186;5.688;2023-10-13T03:23:54;13.30;;;7.07;;
16416;SDS011;8317;52.186;5.688;2023-10-13T03:26:20;18.65;;;6.90;;
16416;SDS011;8317;52.186;5.688;2023-10-13T03:28:47;13.15;;;7.40;;
16416;SDS011;8317;52.186;5.688;2023-10-13T03:31:17;11.88;;;7.05;;
16416;SDS011;8317;52.186;5.688;2023-10-13T03:33:53;13.55;;;7.38;;
16416;SDS011;8317;52.186;5.688;2023-10-13T03:36:26;12.77;;;6.78;;
16416;SDS011;8317;52.186;5.688;2023-10-13T03:39:06;13.60;;;6.70;;
16416;SDS011;8317;52.186;5.688;2023-10-13T03:41:36;15.98;;;6.90;;
16416;SDS011;8317;52.186;5.688;2023-10-13T03:44:04;13.07;;;7.28;;
16416;SDS011;8317;52.186;5.688;2023-10-13T03:46:38;14.43;;;7.10;;
16416;SDS011;8317;52.186;5.688;2023-10-13T03:49:06;12.02;;;7.15;;
16416;SDS011;8317;52.186;5.688;2023-10-13T03:51:39;13.15;;;7.47;;
16416;SDS011;8317;52.186;5.688;2023-10-13T03:54:06;15.13;;;6.72;;
16416;SDS011;8317;52.186;5.688;2023-10-13T03:56:33;12.48;;;6.57;;
16416;SDS011;8317;52.186;5.688;2023-10-13T03:59:05;14.93;;;6.78;;
16416;SDS011;8317;52.186;5.688;2023-10-13T04:01:35;15.52;;;6.57;;
16416;SDS011;8317;52.186;5.688;2023-10-13T04:04:10;18.25;;;6.35;;
16416;SDS011;8317;52.186;5.688;2023-10-13T04:06:41;11.32;;;5.80;;
16416;SDS011;8317;52.186;5.688;2023-10-13T04:09:22;15.32;;;6.28;;
16416;SDS011;8317;52.186;5.688;2023-10-13T04:12:07;11.73;;;6.68;;
16416;SDS011;8317;52.186;5.688;2023-10-13T04:15:04;7.38;;;4.75;;
16416;SDS011;8317;52.186;5.688;2023-10-13T04:17:43;13.50;;;5.35;;
16416;SDS011;8317;52.186;5.688;2023-10-13T04:20:11;12.05;;;6.47;;
16416;SDS011;8317;52.186;5.688;2023-10-13T04:22:40;13.80;;;5.78;;
16416;SDS011;8317;52.186;5.688;2023-10-13T04:25:34;13.80;;;6.45;;
16416;SDS011;8317;52.186;5.688;2023-10-13T04:28:17;8.15;;;5.43;;
16416;SDS011;8317;52.186;5.688;2023-10-13T04:30:58;15.85;;;6.25;;
16416;SDS011;8317;52.186;5.688;2023-10-13T04:33:36;9.10;;;5.43;;
16416;SDS011;8317;52.186;5.688;2023-10-13T04:36:16;14.18;;;5.90;;
16416;SDS011;8317;52.186;5.688;2023-10-13T04:38:51;11.20;;;6.55;;
16416;SDS011;8317;52.186;5.688;2023-10-13T04:41:22;8.13;;;5.35;;
16416;SDS011;8317;52.186;5.688;2023-10-13T04:43:56;13.30;;;6.95;;
16416;SDS011;8317;52.186;5.688;2023-10-13T04:46:29;10.18;;;5.75;;
16416;SDS011;8317;52.186;5.688;2023-10-13T04:49:19;11.05;;;6.00;;
16416;SDS011;8317;52.186;5.688;2023-10-13T04:51:52;9.98;;;5.38;;
16416;SDS011;8317;52.186;5.688;2023-10-13T04:54:26;12.40;;;5.53;;
16416;SDS011;8317;52.186;5.688;2023-10-13T04:56:58;12.85;;;5.55;;
16416;SDS011;8317;52.186;5.688;2023-10-13T04:59:48;11.43;;;5.65;;
16416;SDS011;8317;52.186;5.688;2023-10-13T05:02:33;8.90;;;5.70;;
16416;SDS011;8317;52.186;5.688;2023-10-13T05:05:42;13.15;;;5.95;;
16416;SDS011;8317;52.186;5.688;2023-10-13T05:08:35;11.55;;;5.68;;
16416;SDS011;8317;52.186;5.688;2023-10-13T05:11:21;10.88;;;5.18;;
16416;SDS011;8317;52.186;5.688;2023-10-13T05:14:05;8.07;;;4.85;;
16416;SDS011;8317;52.186;5.688;2023-10-13T05:16:49;7.95;;;4.93;;
16416;SDS011;8317;52.186;5.688;2023-10-13T05:19:33;11.38;;;5.55;;
16416;SDS011;8317;52.186;5.688;2023-10-13T05:22:17;7.60;;;4.57;;
16416;SDS011;8317;52.186;5.688;2023-10-13T05:25:01;7.47;;;5.10;;
16416;SDS011;8317;52.186;5.688;2023-10-13T05:28:02;9.82;;;4.53;;
16416;SDS011;8317;52.186;5.688;2023-10-13T05:30:47;13.05;;;5.80;;
16416;SDS011;8317;52.186;5.688;2023-10-13T05:33:31;8.25;;;5.95;;
16416;SDS011;8317;52.186;5.688;2023-10-13T05:36:15;9.60;;;5.65;;
16416;SDS011;8317;52.186;5.688;2023-10-13T05:38:59;11.63;;;6.45;;
16416;SDS011;8317;52.186;5.688;2023-10-13T05:41:43;13.55;;;6.30;;
16416;SDS011;8317;52.186;5.688;2023-10-13T05:44:29;11.02;;;6.47;;
16416;SDS011;8317;52.186;5.688;2023-10-13T05:47:02;10.75;;;6.85;;
16416;SDS011;8317;52.186;5.688;2023-10-13T05:49:47;13.48;;;7.28;;
16416;SDS011;8317;52.186;5.688;2023-10-13T05:52:28;13.45;;;7.93;;
16416;SDS011;8317;52.186;5.688;2023-10-13T05:55:12;14.38;;;6.10;;
16416;SDS011;8317;52.186;5.688;2023-10-13T05:57:57;9.57;;;5.75;;
16416;SDS011;8317;52.186;5.688;2023-10-13T06:00:43;8.05;;;5.25;;
16416;SDS011;8317;52.186;5.688;2023-10-13T06:03:27;12.32;;;5.28;;
16416;SDS011;8317;52.186;5.688;2023-10-13T06:06:11;8.98;;;5.40;;
16416;SDS011;8317;52.186;5.688;2023-10-13T06:08:55;12.98;;;5.15;;
16416;SDS011;8317;52.186;5.688;2023-10-13T06:11:39;8.90;;;4.78;;
16416;SDS011;8317;52.186;5.688;2023-10-13T06:14:24;7.18;;;4.82;;
16416;SDS011;8317;52.186;5.688;2023-10-13T06:17:09;11.25;;;4.82;;
16416;SDS011;8317;52.186;5.688;2023-10-13T06:19:53;13.70;;;5.70;;
16416;SDS011;8317;52.186;5.688;2023-10-13T06:22:38;12.15;;;5.60;;
16416;SDS011;8317;52.186;5.688;2023-10-13T06:25:22;8.07;;;4.20;;
16416;SDS011;8317;52.186;5.688;2023-10-13T06:28:06;10.80;;;5.57;;
16416;SDS011;8317;52.186;5.688;2023-10-13T06:30:54;10.75;;;4.85;;
16416;SDS011;8317;52.186;5.688;2023-10-13T06:33:24;16.88;;;5.60;;
16416;SDS011;8317;52.186;5.688;2023-10-13T06:35:54;7.57;;;4.93;;
16416;SDS011;8317;52.186;5.688;2023-10-13T06:38:24;12.60;;;5.60;;
16416;SDS011;8317;52.186;5.688;2023-10-13T06:40:56;18.60;;;5.78;;
16416;SDS011;8317;52.186;5.688;2023-10-13T06:43:23;13.90;;;4.95;;
16416;SDS011;8317;52.186;5.688;2023-10-13T06:45:50;10.95;;;5.63;;
16416;SDS011;8317;52.186;5.688;2023-10-13T06:48:24;11.18;;;5.38;;
16416;SDS011;8317;52.186;5.688;2023-10-13T06:50:51;8.98;;;6.15;;
16416;SDS011;8317;52.186;5.688;2023-10-13T06:53:20;13.95;;;5.38;;
16416;SDS011;8317;52.186;5.688;2023-10-13T06:55:47;7.35;;;5.13;;
16416;SDS011;8317;52.186;5.688;2023-10-13T06:58:18;10.50;;;6.25;;
16416;SDS011;8317;52.186;5.688;2023-10-13T07:00:49;9.73;;;6.85;;
16416;SDS011;8317;52.186;5.688;2023-10-13T07:03:20;9.38;;;6.65;;
16416;SDS011;8317;52.186;5.688;2023-10-13T07:05:49;12.45;;;6.90;;
16416;SDS011;8317;52.186;5.688;2023-10-13T07:08:17;13.05;;;6.68;;
16416;SDS011;8317;52.186;5.688;2023-10-13T07:10:48;11.77;;;5.57;;
16416;SDS011;8317;52.186;5.688;2023-10-13T07:13:26;9.90;;;5.70;;
16416;SDS011;8317;52.186;5.688;2023-10-13T07:15:54;10.20;;;6.00;;
16416;SDS011;8317;52.186;5.688;2023-10-13T07:18:25;9.38;;;6.38;;
16416;SDS011;8317;52.186;5.688;2023-10-13T07:21:02;8.20;;;6.47;;
16416;SDS011;8317;52.186;5.688;2023-10-13T07:23:34;14.40;;;6.82;;
16416;SDS011;8317;52.186;5.688;2023-10-13T07:26:02;15.18;;;6.78;;
16416;SDS011;8317;52.186;5.688;2023-10-13T07:28:30;8.57;;;5.68;;
16416;SDS011;8317;52.186;5.688;2023-10-13T07:31:01;11.05;;;6.88;;
16416;SDS011;8317;52.186;5.688;2023-10-13T07:33:38;10.27;;;6.05;;
16416;SDS011;8317;52.186;5.688;2023-10-13T07:36:07;6.95;;;5.03;;
16416;SDS011;8317;52.186;5.688;2023-10-13T07:38:43;11.50;;;6.22;;
16416;SDS011;8317;52.186;5.688;2023-10-13T07:41:13;13.13;;;5.57;;
16416;SDS011;8317;52.186;5.688;2023-10-13T07:43:42;12.70;;;5.75;;
16416;SDS011;8317;52.186;5.688;2023-10-13T07:46:11;12.82;;;5.28;;
16416;SDS011;8317;52.186;5.688;2023-10-13T07:48:38;9.00;;;5.22;;
16416;SDS011;8317;52.186;5.688;2023-10-13T07:51:12;11.00;;;5.38;;
16416;SDS011;8317;52.186;5.688;2023-10-13T07:53:41;9.23;;;4.78;;
16416;SDS011;8317;52.186;5.688;2023-10-13T07:56:08;7.95;;;4.38;;
16416;SDS011;8317;52.186;5.688;2023-10-13T07:58:36;7.35;;;5.05;;
16416;SDS011;8317;52.186;5.688;2023-10-13T08:01:13;7.35;;;4.38;;
16416;SDS011;8317;52.186;5.688;2023-10-13T08:03:43;8.40;;;4.18;;
16416;SDS011;8317;52.186;5.688;2023-10-13T08:06:12;10.27;;;4.85;;
16416;SDS011;8317;52.186;5.688;2023-10-13T08:08:51;9.07;;;4.97;;
16416;SDS011;8317;52.186;5.688;2023-10-13T08:11:32;8.90;;;4.35;;
16416;SDS011;8317;52.186;5.688;2023-10-13T08:14:00;13.82;;;5.45;;
16416;SDS011;8317;52.186;5.688;2023-10-13T08:16:37;10.32;;;5.45;;
16416;SDS011;8317;52.186;5.688;2023-10-13T08:19:18;10.50;;;5.63;;
16416;SDS011;8317;52.186;5.688;2023-10-13T08:21:53;18.20;;;4.75;;
16416;SDS011;8317;52.186;5.688;2023-10-13T08:24:24;11.32;;;4.85;;
16416;SDS011;8317;52.186;5.688;2023-10-13T08:26:54;10.93;;;4.32;;
16416;SDS011;8317;52.186;5.688;2023-10-13T08:29:38;19.40;;;4.82;;
16416;SDS011;8317;52.186;5.688;2023-10-13T08:32:34;11.25;;;4.88;;
16416;SDS011;8317;52.186;5.688;2023-10-13T08:35:19;13.10;;;4.82;;
16416;SDS011;8317;52.186;5.688;2023-10-13T08:38:00;10.32;;;4.90;;
16416;SDS011;8317;52.186;5.688;2023-10-13T08:40:40;10.30;;;3.95;;
16416;SDS011;8317;52.186;5.688;2023-10-13T08:43:41;12.52;;;4.55;;
16416;SDS011;8317;52.186;5.688;2023-10-13T08:46:10;11.18;;;4.88;;
16416;SDS011;8317;52.186;5.688;2023-10-13T08:48:52;5.05;;;3.92;;
16416;SDS011;8317;52.186;5.688;2023-10-13T08:51:30;12.00;;;4.18;;
16416;SDS011;8317;52.186;5.688;2023-10-13T08:54:12;16.65;;;4.20;;
16416;SDS011;8317;52.186;5.688;2023-10-13T08:56:46;5.53;;;3.78;;
16416;SDS011;8317;52.186;5.688;2023-10-13T08:59:20;7.78;;;3.67;;
16416;SDS011;8317;52.186;5.688;2023-10-13T09:01:58;10.20;;;4.88;;
16416;SDS011;8317;52.186;5.688;2023-10-13T09:04:25;6.82;;;3.95;;
16416;SDS011;8317;52.186;5.688;2023-10-13T09:06:59;11.38;;;3.88;;
16416;SDS011;8317;52.186;5.688;2023-10-13T09:09:43;12.07;;;4.20;;
16416;SDS011;8317;52.186;5.688;2023-10-13T09:12:36;8.35;;;4.65;;
16416;SDS011;8317;52.186;5.688;2023-10-13T09:15:05;12.50;;;3.70;;
16416;SDS011;8317;52.186;5.688;2023-10-13T09:17:45;12.75;;;4.07;;
16416;SDS011;8317;52.186;5.688;2023-10-13T09:20:17;13.80;;;3.97;;
16416;SDS011;8317;52.186;5.688;2023-10-13T09:22:58;7.13;;;3.28;;
16416;SDS011;8317;52.186;5.688;2023-10-13T09:25:35;7.53;;;3.10;;
16416;SDS011;8317;52.186;5.688;2023-10-13T09:28:03;6.82;;;3.20;;
16416;SDS011;8317;52.186;5.688;2023-10-13T09:30:46;11.77;;;3.80;;
16416;SDS011;8317;52.186;5.688;2023-10-13T09:33:13;11.75;;;3.58;;
16416;SDS011;8317;52.186;5.688;2023-10-13T09:35:53;13.52;;;5.38;;
16416;SDS011;8317;52.186;5.688;2023-10-13T09:38:24;11.02;;;4.80;;
16416;SDS011;8317;52.186;5.688;2023-10-13T09:40:52;9.40;;;4.32;;
16416;SDS011;8317;52.186;5.688;2023-10-13T09:43:22;15.77;;;4.03;;
16416;SDS011;8317;52.186;5.688;2023-10-13T09:45:50;10.18;;;3.65;;
16416;SDS011;8317;52.186;5.688;2023-10-13T09:48:32;8.80;;;4.00;;
16416;SDS011;8317;52.186;5.688;2023-10-13T09:50:59;12.43;;;3.75;;
16416;SDS011;8317;52.186;5.688;2023-10-13T09:53:30;10.93;;;3.95;;
16416;SDS011;8317;52.186;5.688;2023-10-13T09:56:00;9.55;;;3.50;;
16416;SDS011;8317;52.186;5.688;2023-10-13T09:58:37;7.97;;;3.50;;
16416;SDS011;8317;52.186;5.688;2023-10-13T10:01:12;8.55;;;3.88;;
16416;SDS011;8317;52.186;5.688;2023-10-13T10:03:46;8.52;;;3.72;;
16416;SDS011;8317;52.186;5.688;2023-10-13T10:06:22;16.92;;;3.28;;
16416;SDS011;8317;52.186;5.688;2023-10-13T10:09:03;12.45;;;3.65;;
16416;SDS011;8317;52.186;5.688;2023-10-13T10:11:52;11.30;;;4.47;;
16416;SDS011;8317;52.186;5.688;2023-10-13T10:17:38;10.77;;;4.15;;
16416;SDS011;8317;52.186;5.688;2023-10-13T10:20:06;10.52;;;4.05;;
16416;SDS011;8317;52.186;5.688;2023-10-13T10:22:55;8.75;;;3.88;;
16416;SDS011;8317;52.186;5.688;2023-10-13T10:25:31;7.70;;;3.20;;
16416;SDS011;8317;52.186;5.688;2023-10-13T10:28:02;6.85;;;3.55;;
16416;SDS011;8317;52.186;5.688;2023-10-13T10:30:31;9.18;;;3.72;;
16416;SDS011;8317;52.186;5.688;2023-10-13T10:33:00;10.30;;;4.03;;
16416;SDS011;8317;52.186;5.688;2023-10-13T10:35:32;10.35;;;3.38;;
16416;SDS011;8317;52.186;5.688;2023-10-13T10:38:06;12.43;;;3.85;;
16416;SDS011;8317;52.186;5.688;2023-10-13T10:40:51;7.38;;;3.75;;
16416;SDS011;8317;52.186;5.688;2023-10-13T10:43:25;13.68;;;4.68;;
16416;SDS011;8317;52.186;5.688;2023-10-13T10:45:54;7.30;;;4.07;;
16416;SDS011;8317;52.186;5.688;2023-10-13T10:48:24;13.27;;;4.55;;
16416;SDS011;8317;52.186;5.688;2023-10-13T10:50:57;9.63;;;4.07;;
16416;SDS011;8317;52.186;5.688;2023-10-13T10:53:31;10.65;;;4.47;;
16416;SDS011;8317;52.186;5.688;2023-10-13T10:56:08;10.32;;;4.05;;
16416;SDS011;8317;52.186;5.688;2023-10-13T10:58:47;8.90;;;3.67;;
16416;SDS011;8317;52.186;5.688;2023-10-13T11:01:19;12.45;;;4.18;;
16416;SDS011;8317;52.186;5.688;2023-10-13T11:03:53;8.52;;;3.80;;
16416;SDS011;8317;52.186;5.688;2023-10-13T11:06:22;11.77;;;3.75;;
16416;SDS011;8317;52.186;5.688;2023-10-13T11:09:00;6.85;;;4.00;;
16416;SDS011;8317;52.186;5.688;2023-10-13T11:11:29;7.97;;;3.78;;
16416;SDS011;8317;52.186;5.688;2023-10-13T11:14:02;11.45;;;3.55;;
16416;SDS011;8317;52.186;5.688;2023-10-13T11:16:46;8.35;;;3.67;;
16416;SDS011;8317;52.186;5.688;2023-10-13T11:19:19;10.75;;;3.47;;
16416;SDS011;8317;52.186;5.688;2023-10-13T11:21:53;8.10;;;4.50;;
16416;SDS011;8317;52.186;5.688;2023-10-13T11:24:21;11.90;;;3.47;;
16416;SDS011;8317;52.186;5.688;2023-10-13T11:26:48;9.13;;;3.95;;
16416;SDS011;8317;52.186;5.688;2023-10-13T11:29:17;5.53;;;3.65;;
16416;SDS011;8317;52.186;5.688;2023-10-13T11:31:48;6.85;;;4.55;;
16416;SDS011;8317;52.186;5.688;2023-10-13T11:34:23;14.73;;;4.00;;
16416;SDS011;8317;52.186;5.688;2023-10-13T11:36:50;6.82;;;3.30;;
16416;SDS011;8317;52.186;5.688;2023-10-13T11:39:17;8.93;;;3.30;;
16416;SDS011;8317;52.186;5.688;2023-10-13T11:41:49;12.20;;;4.75;;
16416;SDS011;8317;52.186;5.688;2023-10-13T11:44:22;18.40;;;4.18;;
16416;SDS011;8317;52.186;5.688;2023-10-13T11:47:08;8.90;;;3.67;;
16416;SDS011;8317;52.186;5.688;2023-10-13T11:49:57;9.90;;;3.92;;
16416;SDS011;8317;52.186;5.688;2023-10-13T11:52:24;7.53;;;4.13;;
16416;SDS011;8317;52.186;5.688;2023-10-13T11:54:54;11.95;;;4.07;;
16416;SDS011;8317;52.186;5.688;2023-10-13T11:57:21;11.93;;;4.07;;
16416;SDS011;8317;52.186;5.688;2023-10-13T11:59:49;13.10;;;4.50;;
16416;SDS011;8317;52.186;5.688;2023-10-13T12:02:21;8.85;;;4.28;;
16416;SDS011;8317;52.186;5.688;2023-10-13T12:05:05;8.73;;;3.92;;
16416;SDS011;8317;52.186;5.688;2023-10-13T12:07:52;9.82;;;5.25;;
16416;SDS011;8317;52.186;5.688;2023-10-13T12:10:28;11.80;;;4.85;;
16416;SDS011;8317;52.186;5.688;2023-10-13T12:13:14;15.43;;;4.32;;
16416;SDS011;8317;52.186;5.688;2023-10-13T12:15:43;11.55;;;3.95;;
16416;SDS011;8317;52.186;5.688;2023-10-13T12:18:21;9.32;;;3.92;;
16416;SDS011;8317;52.186;5.688;2023-10-13T12:20:48;13.95;;;4.40;;
16416;SDS011;8317;52.186;5.688;2023-10-13T12:23:15;7.72;;;4.15;;
16416;SDS011;8317;52.186;5.688;2023-10-13T12:25:42;11.82;;;4.40;;
16416;SDS011;8317;52.186;5.688;2023-10-13T12:28:26;9.60;;;4.05;;
16416;SDS011;8317;52.186;5.688;2023-10-13T12:30:55;13.50;;;3.97;;
16416;SDS011;8317;52.186;5.688;2023-10-13T12:33:24;10.02;;;4.82;;
16416;SDS011;8317;52.186;5.688;2023-10-13T12:36:00;11.95;;;3.65;;
16416;SDS011;8317;52.186;5.688;2023-10-13T12:38:34;13.52;;;4.00;;
16416;SDS011;8317;52.186;5.688;2023-10-13T12:41:36;9.15;;;3.85;;
16416;SDS011;8317;52.186;5.688;2023-10-13T12:44:21;12.55;;;3.75;;
16416;SDS011;8317;52.186;5.688;2023-10-13T12:47:07;10.98;;;4.18;;
16416;SDS011;8317;52.186;5.688;2023-10-13T12:49:59;11.32;;;3.22;;
16416;SDS011;8317;52.186;5.688;2023-10-13T12:52:37;12.07;;;4.30;;
16416;SDS011;8317;52.186;5.688;2023-10-13T12:55:04;6.05;;;3.85;;
16416;SDS011;8317;52.186;5.688;2023-10-13T12:57:38;9.27;;;3.40;;
16416;SDS011;8317;52.186;5.688;2023-10-13T13:00:10;17.08;;;5.03;;
16416;SDS011;8317;52.186;5.688;2023-10-13T13:02:50;10.88;;;4.22;;
16416;SDS011;8317;52.186;5.688;2023-10-13T13:05:20;10.77;;;4.13;;
16416;SDS011;8317;52.186;5.688;2023-10-13T13:07:53;6.28;;;4.05;;
16416;SDS011;8317;52.186;5.688;2023-10-13T13:10:20;17.55;;;4.13;;
16416;SDS011;8317;52.186;5.688;2023-10-13T13:13:00;12.48;;;3.90;;
16416;SDS011;8317;52.186;5.688;2023-10-13T13:15:28;11.50;;;4.68;;
16416;SDS011;8317;52.186;5.688;2023-10-13T13:17:56;14.30;;;3.88;;
16416;SDS011;8317;52.186;5.688;2023-10-13T13:20:23;8.15;;;3.63;;
16416;SDS011;8317;52.186;5.688;2023-10-13T13:22:54;12.02;;;4.43;;
16416;SDS011;8317;52.186;5.688;2023-10-13T13:25:27;8.43;;;4.38;;
16416;SDS011;8317;52.186;5.688;2023-10-13T13:27:55;11.45;;;5.10;;
16416;SDS011;8317;52.186;5.688;2023-10-13T13:30:24;15.38;;;4.78;;
16416;SDS011;8317;52.186;5.688;2023-10-13T13:33:00;8.95;;;4.97;;
16416;SDS011;8317;52.186;5.688;2023-10-13T13:35:35;13.55;;;3.97;;
16416;SDS011;8317;52.186;5.688;2023-10-13T13:38:03;13.73;;;4.28;;
16416;SDS011;8317;52.186;5.688;2023-10-13T13:40:36;17.60;;;5.22;;
16416;SDS011;8317;52.186;5.688;2023-10-13T13:43:04;9.18;;;4.28;;
16416;SDS011;8317;52.186;5.688;2023-10-13T13:45:31;8.02;;;4.95;;
16416;SDS011;8317;52.186;5.688;2023-10-13T13:48:01;11.60;;;4.93;;
16416;SDS011;8317;52.186;5.688;2023-10-13T13:50:33;12.20;;;4.63;;
16416;SDS011;8317;52.186;5.688;2023-10-13T13:53:06;13.80;;;4.25;;
16416;SDS011;8317;52.186;5.688;2023-10-13T13:55:35;10.20;;;5.05;;
16416;SDS011;8317;52.186;5.688;2023-10-13T13:58:05;15.48;;;4.43;;
16416;SDS011;8317;52.186;5.688;2023-10-13T14:00:34;9.60;;;4.60;;
16416;SDS011;8317;52.186;5.688;2023-10-13T14:03:05;12.93;;;4.75;;
16416;SDS011;8317;52.186;5.688;2023-10-13T14:05:40;10.48;;;5.07;;
16416;SDS011;8317;52.186;5.688;2023-10-13T14:08:08;14.73;;;5.20;;
16416;SDS011;8317;52.186;5.688;2023-10-13T14:10:37;7.75;;;4.90;;
16416;SDS011;8317;52.186;5.688;2023-10-13T14:13:17;10.55;;;4.40;;
16416;SDS011;8317;52.186;5.688;2023-10-13T14:15:47;13.02;;;5.80;;
16416;SDS011;8317;52.186;5.688;2023-10-13T14:18:22;15.75;;;4.80;;
16416;SDS011;8317;52.186;5.688;2023-10-13T14:20:55;24.38;;;5.20;;
16416;SDS011;8317;52.186;5.688;2023-10-13T14:23:22;12.68;;;5.00;;
16416;SDS011;8317;52.186;5.688;2023-10-13T14:25:50;10.52;;;3.80;;
16416;SDS011;8317;52.186;5.688;2023-10-13T14:28:17;9.45;;;4.18;;
16416;SDS011;8317;52.186;5.688;2023-10-13T14:30:44;15.82;;;6.05;;
16416;SDS011;8317;52.186;5.688;2023-10-13T14:33:11;19.77;;;5.45;;
16416;SDS011;8317;52.186;5.688;2023-10-13T14:35:39;14.30;;;4.85;;
16416;SDS011;8317;52.186;5.688;2023-10-13T14:38:11;8.00;;;4.68;;
16416;SDS011;8317;52.186;5.688;2023-10-13T14:40:38;12.98;;;5.03;;
16416;SDS011;8317;52.186;5.688;2023-10-13T14:43:05;12.13;;;5.05;;
16416;SDS011;8317;52.186;5.688;2023-10-13T14:45:34;12.90;;;4.43;;
16416;SDS011;8317;52.186;5.688;2023-10-13T14:48:02;13.02;;;4.32;;
16416;SDS011;8317;52.186;5.688;2023-10-13T14:50:33;8.52;;;4.25;;
16416;SDS011;8317;52.186;5.688;2023-10-13T14:53:01;11.70;;;4.60;;
16416;SDS011;8317;52.186;5.688;2023-10-13T14:55:28;10.13;;;3.67;;
16416;SDS011;8317;52.186;5.688;2023-10-13T14:58:04;10.85;;;4.40;;
16416;SDS011;8317;52.186;5.688;2023-10-13T15:00:32;13.38;;;4.55;;
16416;SDS011;8317;52.186;5.688;2023-10-13T15:03:00;12.60;;;4.88;;
16416;SDS011;8317;52.186;5.688;2023-10-13T15:05:30;12.88;;;4.10;;
16416;SDS011;8317;52.186;5.688;2023-10-13T15:07:58;14.18;;;4.07;;
16416;SDS011;8317;52.186;5.688;2023-10-13T15:10:26;18.27;;;5.70;;
16416;SDS011;8317;52.186;5.688;2023-10-13T15:12:53;9.23;;;4.20;;
16416;SDS011;8317;52.186;5.688;2023-10-13T15:15:20;9.93;;;4.35;;
16416;SDS011;8317;52.186;5.688;2023-10-13T15:17:47;12.93;;;4.32;;
16416;SDS011;8317;52.186;5.688;2023-10-13T15:20:15;10.10;;;4.70;;
16416;SDS011;8317;52.186;5.688;2023-10-13T15:22:42;12.55;;;4.63;;
16416;SDS011;8317;52.186;5.688;2023-10-13T15:25:09;11.48;;;4.18;;
16416;SDS011;8317;52.186;5.688;2023-10-13T15:27:47;13.50;;;4.70;;
16416;SDS011;8317;52.186;5.688;2023-10-13T15:30:20;10.25;;;5.05;;
16416;SDS011;8317;52.186;5.688;2023-10-13T15:32:49;9.35;;;4.57;;